Terminal Aerodrome Forecast
Issued by NWS Topeka, KS

Home | Current Version | Previous Version | Text Only | Print | Product List | Glossary On
Versions: 1 2 3 4 5 6 7 8 9 10 11 12 13 14 15 16 17 18 19
550
FTUS43 KTOP 171131
TAFTOP
TAF
KTOP 171131Z 1712/1812 19007KT P6SM SKC WS012/22040KT
     FM171500 20012KT P6SM FEW250
     FM180000 19006KT P6SM SCT250=

USA.gov is the U.S. government's official web portal to all federal, state and local government web resources and services.